»·PEaware :: AAL563 KPHX-KSAN

AAL563 :: KPHX-KSAN

FLIGHT INFORMATION

Flight Status: Arrived
Operator:
American Airlines
More flights by this operator :: More flights under this callsign
Pilot: Alfredo R. (12181)
Aircraft: BOEING 737-800
(B738)
More flights by this aircraft type
Origin: KPHX Phoenix Sky Harbor Intl
United States
Destination: KSAN San Diego Intl-Lindbergh
United States
More flights between these airports :: More routes between these airports
Route: JUDTH6 MOHAK J2 HOGGZ LUCKI1
File this flight plan on PilotEdge
Remarks:
Altitude:
(Current/Filed)
26,000ft
Speed:
(Current/Filed)
425kts
Departed: 25-Apr-18 07:37 PM
Arrived: 25-Apr-18 08:27 PM
Distance/Time
Traveled:
264nm/0:50
Distance/Time
To Go:
Arrived

Flight Plot

Page will automatically refresh every two minutes.

Flight plan parsing failed; only flown route is shown


Map Options




Map Legend


Flown Route
Filed Route
Departure Airport
Arrival Airport
Navaid (VOR, NDB)
Fix

Horizontal Profiles

Position Reports

Time Latitude Longitude Heading Altitude Ground
Speed
25-Apr-18 19:12 33.437138 -112.001288 269 1130ft 0kts
25-Apr-18 19:13 33.437138 -112.001288 269 1130ft 0kts
25-Apr-18 19:14 33.437138 -112.001288 269 1130ft 0kts
25-Apr-18 19:15 33.437138 -112.001288 269 1130ft 0kts
25-Apr-18 19:16 33.437138 -112.001288 269 1130ft 0kts
25-Apr-18 19:17 33.437138 -112.001288 269 1130ft 0kts
25-Apr-18 19:18 33.437138 -112.001288 269 1130ft 0kts
25-Apr-18 19:19 33.437138 -112.001288 269 1130ft 0kts
25-Apr-18 19:20 33.437139 -112.001182 268 1130ft 2kts
25-Apr-18 19:21 33.436802 -112.000774 2 1130ft 1kts
25-Apr-18 19:22 33.436767 -112.000774 356 1130ft 0kts
25-Apr-18 19:23 33.436767 -112.000774 356 1130ft 0kts
25-Apr-18 19:24 33.436767 -112.000774 356 1130ft 0kts
25-Apr-18 19:25 33.436767 -112.000774 356 1130ft 0kts
25-Apr-18 19:26 33.436767 -112.000774 356 1130ft 0kts
25-Apr-18 19:27 33.436767 -112.000774 356 1130ft 0kts
25-Apr-18 19:28 33.437315 -112.000769 0 1130ft 4kts
25-Apr-18 19:29 33.438838 -112.000770 359 1130ft 6kts
25-Apr-18 19:30 33.439713 -112.000217 86 1132ft 1kts
25-Apr-18 19:31 33.439716 -111.998307 90 1133ft 10kts
25-Apr-18 19:32 33.439712 -111.994811 89 1136ft 12kts
25-Apr-18 19:33 33.439826 -111.992452 42 1136ft 0kts
25-Apr-18 19:34 33.439899 -111.992383 32 1136ft 1kts
25-Apr-18 19:35 33.440807 -111.992822 273 1136ft 8kts
25-Apr-18 19:36 33.440814 -112.015725 269 1124ft 162kts
25-Apr-18 19:37 33.427012 -112.070943 229 2882ft 202kts
25-Apr-18 19:38 33.388766 -112.126507 231 4927ft 251kts
25-Apr-18 19:39 33.318124 -112.151277 189 7601ft 287kts
25-Apr-18 19:40 33.248881 -112.200110 225 10443ft 302kts
25-Apr-18 19:41 33.195329 -112.285547 234 12863ft 332kts
25-Apr-18 19:42 33.140365 -112.375533 234 15906ft 341kts
25-Apr-18 19:43 33.084055 -112.466974 235 18751ft 349kts
25-Apr-18 19:44 33.025738 -112.561256 235 21252ft 360kts
25-Apr-18 19:45 32.965871 -112.657762 236 23505ft 370kts
25-Apr-18 19:46 32.940456 -112.774736 262 25665ft 371kts
25-Apr-18 19:47 32.924381 -112.900899 261 25912ft 407kts
25-Apr-18 19:48 32.906447 -113.035600 261 25899ft 414kts
25-Apr-18 19:49 32.888082 -113.171089 261 25898ft 414kts
25-Apr-18 19:50 32.869596 -113.305913 261 25897ft 414kts
25-Apr-18 19:51 32.850877 -113.441130 261 25900ft 413kts
25-Apr-18 19:52 32.832091 -113.575305 261 25892ft 414kts
25-Apr-18 19:53 32.813030 -113.710397 260 25911ft 414kts
25-Apr-18 19:54 32.793797 -113.845242 260 25907ft 414kts
25-Apr-18 19:55 32.774625 -113.979698 263 25906ft 414kts
25-Apr-18 19:56 32.774829 -114.116279 272 25910ft 415kts
25-Apr-18 19:57 32.780975 -114.253174 272 25905ft 414kts
25-Apr-18 19:58 32.786949 -114.389825 275 25894ft 415kts
25-Apr-18 19:59 32.822012 -114.520323 287 25896ft 417kts
25-Apr-18 20:00 32.858443 -114.649484 286 25894ft 413kts
25-Apr-18 20:01 32.878428 -114.781984 268 25900ft 411kts
25-Apr-18 20:02 32.875584 -114.910944 267 25895ft 409kts
25-Apr-18 20:03 32.872550 -115.045694 267 25807ft 411kts
25-Apr-18 20:04 32.869205 -115.181060 267 24496ft 404kts
25-Apr-18 20:05 32.865978 -115.309594 267 22988ft 384kts
25-Apr-18 20:06 32.854107 -115.432679 259 21473ft 367kts
25-Apr-18 20:07 32.835639 -115.550207 257 20250ft 362kts
25-Apr-18 20:08 32.816097 -115.667218 257 19042ft 359kts
25-Apr-18 20:09 32.796881 -115.782484 257 17854ft 355kts
25-Apr-18 20:10 32.781469 -115.897893 263 16659ft 353kts
25-Apr-18 20:11 32.772796 -116.013475 263 15463ft 350kts
25-Apr-18 20:12 32.764167 -116.127451 263 14263ft 341kts
25-Apr-18 20:13 32.755833 -116.236330 263 13059ft 330kts
25-Apr-18 20:14 32.747616 -116.342762 263 11868ft 322kts
25-Apr-18 20:15 32.739935 -116.441676 263 10660ft 300kts
25-Apr-18 20:16 32.731775 -116.539810 262 9456ft 295kts
25-Apr-18 20:17 32.722579 -116.635006 262 8261ft 287kts
25-Apr-18 20:18 32.714581 -116.728984 263 7072ft 286kts
25-Apr-18 20:19 32.707896 -116.814164 262 5837ft 250kts
25-Apr-18 20:20 32.687365 -116.888076 248 4601ft 224kts
25-Apr-18 20:21 32.674617 -116.955352 281 3719ft 217kts
25-Apr-18 20:22 32.692255 -117.020697 286 2807ft 193kts
25-Apr-18 20:23 32.705990 -117.076285 286 1978ft 164kts
25-Apr-18 20:24 32.717890 -117.125152 286 1236ft 142kts
25-Apr-18 20:25 32.728616 -117.169415 287 260ft 135kts
25-Apr-18 20:26 32.736599 -117.202281 288 25ft 40kts
25-Apr-18 20:27 32.735181 -117.203316 95 25ft 12kts
25-Apr-18 20:28 32.734908 -117.199476 105 25ft 4kts
25-Apr-18 20:29 32.734100 -117.198575 177 25ft 3kts
25-Apr-18 20:30 32.733841 -117.198559 177 25ft 0kts

Navigation Log

Ident Type
Flight plan parsing failed, navigation log unavailable